Latest Weather Observations for Wagga Wagga

IDN60801

Issued at 2:42 am EST Tuesday 23 July 2024 (issued every 10 minutes, with the page automatically refreshed every 10 minutes)

About weather observations | Map of weather stations | Latest weather observations for NSW | Other Formats
Station Details ID: 072150 Name: WAGGA WAGGA AMO Lat: -35.16 Lon: 147.46 Height: 212.0 m
Data from the previous 72 hours. | See also: Recent months at Wagga Wagga
Date/Time
EST
Temp
°C
App
Temp
°C
Dew
Point
°C
Rel
Hum
%
Delta-T
°C
Wind Press
QNH
hPa
Press
MSL
hPa
Rain since
9am
mm
Dir  Spd
km/h
Gust
km/h
Spd
kts
Gust
kts
23/02:30am 2.9 0.6 2.6 98 0.1 ENE 4 7 2 4 1027.1 1027.6 0.0
23/02:00am 4.5 1.5 4.2 98 0.1 ENE 9 13 5 7 1027.2 1027.7 0.0
23/01:54am 4.3 0.9 4.0 98 0.1 ENE 11 13 6 7 1027.2 1027.7 0.0
23/01:35am 3.2 1.7 2.9 98 0.1 CALM 0 0 0 0 1027.2 1027.7 0.0
23/01:30am 3.4 1.9 3.1 98 0.1 CALM 0 2 0 1 1027.2 1027.7 0.0
23/01:00am 4.5 2.8 4.2 98 0.1 NE 2 9 1 5 1027.2 1027.7 0.0
23/12:53am 4.0 2.6 3.7 98 0.1 CALM 0 0 0 0 1027.1 1027.6 0.0
23/12:47am 3.8 2.4 3.5 98 0.1 CALM 0 0 0 0 1027.1 1027.6 0.0
23/12:30am 2.8 0.8 2.4 97 0.2 SSW 2 11 1 6 1027.3 1027.8 0.0
23/12:13am 4.5 3.2 4.2 98 0.1 CALM 0 0 0 0 1027.2 1027.7 0.0
23/12:12am 4.5 3.2 4.2 98 0.1 CALM 0 0 0 0 1027.2 1027.7 0.0
23/12:00am 4.4 3.1 4.1 98 0.1 CALM 0 0 0 0 1027.3 1027.8 0.0
 
Date/Time
EST
Temp
°C
App
Temp
°C
Dew
Point
°C
Rel
Hum
%
Delta-T
°C
Wind Press
QNH
hPa
Press
MSL
hPa
Rain since
9am
mm
Dir  Spd
km/h
Gust
km/h
Spd
kts
Gust
kts
22/11:43pm 4.3 3.0 3.9 97 0.2 CALM 0 0 0 0 1027.4 1027.9 0.0
22/11:34pm 4.1 2.7 3.5 96 0.3 CALM 0 0 0 0 1027.3 1027.8 0.0
22/11:30pm 4.1 2.7 3.5 96 0.3 CALM 0 0 0 0 1027.4 1027.9 0.0
22/11:27pm 4.2 2.8 3.6 96 0.3 CALM 0 0 0 0 1027.4 1027.9 0.0
22/11:20pm 4.5 3.1 3.8 95 0.3 CALM 0 0 0 0 1027.4 1027.9 0.0
22/11:00pm 5.8 4.8 5.4 97 0.2 CALM 0 0 0 0 1027.3 1027.8 0.0
22/10:30pm 6.2 5.2 5.8 97 0.2 CALM 0 0 0 0 1027.3 1027.8 0.0
22/10:00pm 6.4 5.5 6.0 97 0.2 CALM 0 0 0 0 1027.5 1028.0 0.0
22/09:37pm 6.3 5.4 5.9 97 0.2 CALM 0 0 0 0 1027.4 1027.9 0.0
22/09:30pm 6.4 5.5 6.0 97 0.2 CALM 0 0 0 0 1027.4 1027.9 0.0
22/09:14pm 6.1 5.1 5.5 96 0.3 CALM 0 0 0 0 1027.3 1027.8 0.0
22/09:00pm 6.3 5.3 5.6 95 0.3 CALM 0 0 0 0 1027.2 1027.7 0.0
22/08:44pm 6.6 5.7 5.9 95 0.3 CALM 0 0 0 0 1027.0 1027.5 0.0
22/08:30pm 7.1 6.2 6.2 94 0.4 CALM 0 0 0 0 1027.0 1027.5 0.0
22/08:23pm 7.4 6.2 6.3 93 0.5 ESE 2 7 1 4 1027.0 1027.5 0.0
22/08:00pm 8.7 6.8 7.6 93 0.5 ESE 7 7 4 4 1027.0 1027.5 0.0
22/07:30pm 9.6 7.5 8.2 91 0.7 ENE 9 9 5 5 1026.8 1027.3 0.0
22/07:00pm 9.7 9.4 8.5 92 0.6 CALM 0 0 0 0 1026.6 1027.1 0.0
22/06:30pm 9.9 9.5 8.3 90 0.8 CALM 0 0 0 0 1026.4 1026.9 0.0
22/06:00pm 10.0 9.6 8.1 88 0.9 CALM 0 0 0 0 1026.2 1026.7 0.0
22/05:30pm 11.0 9.4 8.6 85 1.2 SSW 7 7 4 4 1026.0 1026.5 0.0
22/05:00pm 12.6 10.6 8.7 77 2.0 W 9 11 5 6 1025.9 1026.4 0.0
22/04:30pm 12.7 10.7 8.8 77 2.0 W 9 11 5 6 1025.5 1026.0 0.0
22/04:00pm 14.0 11.8 9.4 74 2.4 W 11 15 6 8 1025.5 1026.0 0.0
22/03:30pm 14.2 12.2 8.6 69 2.9 NNW 9 11 5 6 1025.4 1025.9 0.0
22/03:00pm 14.5 13.2 9.1 70 2.8 W 6 9 3 5 1025.4 1025.9 0.0
22/02:30pm 13.9 11.9 8.7 71 2.6 NW 9 13 5 7 1025.4 1025.9 0.0
22/02:26pm 13.5 11.0 8.1 70 2.7 NW 11 13 6 7 1025.4 1025.9 0.0
22/02:00pm 13.1 11.1 8.6 74 2.3 WNW 9 13 5 7 1025.6 1026.1 0.0
22/01:30pm 12.5 10.5 8.8 78 1.9 W 9 11 5 6 1025.7 1026.2 0.0
22/01:00pm 13.0 9.5 8.9 76 2.1 WNW 17 24 9 13 1026.0 1026.5 0.0
22/12:40pm 13.6 10.9 9.1 74 2.3 NW 13 17 7 9 1026.2 1026.7 0.0
22/12:30pm 13.5 11.1 8.8 73 2.4 NNW 11 15 6 8 1026.4 1026.9 0.0
22/12:20pm 13.7 11.5 9.4 75 2.2 NW 11 17 6 9 1026.5 1027.0 0.0
22/12:00pm 13.1 11.1 8.6 74 2.3 NNW 9 13 5 7 1026.7 1027.2 0.0
22/11:40am 13.1 11.5 8.8 75 2.2 NE 7 11 4 6 1026.7 1027.2 0.0
22/11:30am 12.8 11.4 8.7 76 2.1 NW 6 9 3 5 1026.8 1027.3 0.0
22/11:26am 12.6 11.3 9.1 79 1.8 NW 6 7 3 4 1026.9 1027.4 0.0
22/11:13am 12.7 11.4 9.2 79 1.8 NE 6 11 3 6 1026.9 1027.4 0.0
22/11:00am 12.7 11.4 9.3 80 1.7 NNW 6 7 3 4 1026.9 1027.4 0.0
22/10:59am 12.5 11.2 9.3 81 1.6 NNW 6 7 3 4 1027.0 1027.5 0.0
22/10:30am 11.1 8.7 8.8 86 1.2 NW 11 15 6 8 1027.2 1027.7 0.0
22/10:00am 11.0 9.4 8.8 86 1.1 N 7 9 4 5 1027.1 1027.6 0.0
22/09:30am 10.3 9.3 8.9 91 0.7 NW 4 11 2 6 1027.1 1027.6 0.0
22/09:00am 9.1 8.8 8.6 97 0.2 CALM 0 0 0 0 1026.7 1027.2 0.8
22/08:30am 8.3 7.8 7.9 97 0.2 CALM 0 0 0 0 1026.3 1026.8 0.6
22/08:00am 8.1 7.6 7.7 97 0.2 CALM 0 0 0 0 1025.9 1026.4 0.6
22/07:30am 8.1 7.2 7.7 97 0.2 NE 2 7 1 4 1025.7 1026.2 0.6
22/07:00am 8.2 6.0 7.8 97 0.2 E 9 11 5 6 1025.6 1026.1 0.6
22/06:30am 8.1 7.6 7.7 97 0.2 CALM 0 6 0 3 1025.4 1025.9 0.6
22/06:00am 7.8 7.2 7.4 97 0.2 CALM 0 0 0 0 1025.1 1025.5 0.6
22/05:30am 7.7 7.1 7.3 97 0.2 CALM 0 0 0 0 1024.9 1025.3 0.6
22/05:00am 7.7 7.1 7.3 97 0.2 CALM 0 0 0 0 1024.6 1025.0 0.4
22/04:30am 7.9 5.6 7.5 97 0.2 ENE 9 11 5 6 1024.5 1024.9 0.2
22/04:00am 8.0 5.4 7.6 97 0.2 NE 11 13 6 7 1024.6 1025.0 0.2
22/03:30am 7.9 6.2 7.5 97 0.2 S 6 11 3 6 1024.8 1025.2 0.2
22/03:00am 8.1 6.4 7.7 97 0.2 E 6 9 3 5 1024.8 1025.2 0.0
22/02:30am 8.0 5.4 7.7 98 0.1 ESE 11 11 6 6 1024.7 1025.1 0.0
22/02:00am 7.2 4.8 6.9 98 0.1 ESE 9 11 5 6 1024.7 1025.1 0.0
22/01:54am 6.9 4.4 6.6 98 0.1 ESE 9 9 5 5 1024.7 1025.1 0.0
22/01:35am 7.1 4.6 6.7 97 0.2 ESE 9 9 5 5 1024.6 1025.0 0.0
22/01:30am 7.2 5.1 6.8 97 0.2 ESE 7 9 4 5 1024.7 1025.1 0.0
22/01:25am 7.3 5.3 6.9 97 0.2 ESE 7 9 4 5 1024.7 1025.1 0.0
22/01:00am 7.1 5.5 6.5 96 0.3 E 4 7 2 4 1024.7 1025.1 0.0
22/12:54am 7.3 5.4 6.7 96 0.3 E 6 7 3 4 1024.7 1025.1 0.0
22/12:30am 7.9 5.6 7.3 96 0.3 E 9 9 5 5 1024.8 1025.2 0.0
22/12:00am 8.2 6.0 7.8 97 0.2 SSE 9 9 5 5 1024.9 1025.3 0.0
 
Date/Time
EST
Temp
°C
App
Temp
°C
Dew
Point
°C
Rel
Hum
%
Delta-T
°C
Wind Press
QNH
hPa
Press
MSL
hPa
Rain since
9am
mm
Dir  Spd
km/h
Gust
km/h
Spd
kts
Gust
kts
21/11:30pm 7.8 7.2 7.4 97 0.2 CALM 0 0 0 0 1025.1 1025.5 0.0
21/11:16pm 7.5 6.8 7.1 97 0.2 CALM 0 0 0 0 1025.0 1025.4 0.0
21/11:00pm 7.2 6.4 6.6 96 0.3 CALM 0 0 0 0 1024.9 1025.3 0.0
21/10:56pm 7.5 6.8 6.9 96 0.3 CALM 0 0 0 0 1024.9 1025.3 0.0
21/10:30pm 8.0 6.3 7.6 97 0.2 ESE 6 9 3 5 1024.6 1025.0 0.0
21/10:00pm 8.3 7.4 7.7 96 0.3 ENE 2 6 1 3 1024.8 1025.2 0.0
21/09:30pm 8.7 7.1 7.9 95 0.4 ENE 6 7 3 4 1024.6 1025.0 0.0
21/09:00pm 9.0 8.2 8.2 95 0.4 NE 2 7 1 4 1024.7 1025.1 0.0
21/08:33pm 9.3 7.8 8.4 94 0.4 NE 6 7 3 4 1024.6 1025.0 0.0
21/08:30pm 9.4 7.9 8.3 93 0.5 NNE 6 9 3 5 1024.6 1025.0 0.0
21/08:12pm 9.5 7.4 8.1 91 0.7 NNE 9 9 5 5 1024.6 1025.0 0.0
21/08:00pm 9.5 7.7 7.9 90 0.8 ENE 7 9 4 5 1024.4 1024.8 0.0
21/07:30pm 9.7 8.1 7.8 88 0.9 E 6 7 3 4 1024.3 1024.7 0.0
21/07:00pm 9.9 8.3 7.8 87 1.0 E 6 7 3 4 1024.1 1024.5 0.0
21/06:30pm 10.1 7.5 7.9 86 1.1 ENE 11 11 6 6 1023.5 1024.0 0.0
21/06:00pm 10.2 8.4 8.0 86 1.1 NNE 7 11 4 6 1023.4 1023.9 0.0
21/05:30pm 10.5 7.9 7.7 83 1.4 NE 11 13 6 7 1022.9 1023.4 0.0
21/05:00pm 11.0 9.4 7.9 81 1.5 NNW 6 9 3 5 1022.8 1023.3 0.0
21/04:30pm 11.3 10.7 7.6 78 1.8 CALM 0 0 0 0 1022.4 1022.9 0.0
21/04:00pm 11.3 10.8 8.0 80 1.6 CALM 0 0 0 0 1022.2 1022.7 0.0
21/03:30pm 11.2 8.6 7.9 80 1.6 NW 11 13 6 7 1021.9 1022.4 0.0
21/03:00pm 11.5 8.9 7.6 77 1.9 NW 11 15 6 8 1021.6 1022.1 0.0
21/02:30pm 11.7 9.0 7.2 74 2.2 W 11 15 6 8 1021.3 1021.8 0.0
21/02:00pm 11.5 8.6 6.6 72 2.3 WSW 11 15 6 8 1021.1 1021.5 0.0
21/01:30pm 11.2 7.9 6.3 72 2.3 W 13 17 7 9 1021.3 1021.8 0.0
21/01:00pm 11.1 7.4 6.5 73 2.2 WNW 15 20 8 11 1021.6 1022.1 0.0
21/12:30pm 11.2 8.3 6.5 73 2.2 WNW 11 17 6 9 1021.7 1022.2 0.0
21/12:00pm 10.3 7.3 6.1 75 2.0 W 11 17 6 9 1022.0 1022.5 0.0
21/11:30am 10.0 6.3 6.3 78 1.7 WNW 15 19 8 10 1022.0 1022.5 0.0
21/11:00am 10.3 6.2 6.3 76 1.9 WSW 17 22 9 12 1022.0 1022.5 0.0
21/10:30am 9.1 5.3 5.8 80 1.5 W 15 19 8 10 1021.8 1022.3 0.0
21/10:00am 8.4 3.2 5.3 81 1.4 W 22 28 12 15 1021.7 1022.2 0.0
21/09:30am 7.7 2.9 4.8 82 1.3 W 19 26 10 14 1021.4 1021.9 0.0
21/09:00am 6.8 2.7 4.3 84 1.1 WSW 15 19 8 10 1020.9 1021.3 4.2
21/08:30am 5.9 2.5 4.1 88 0.8 SW 11 15 6 8 1020.7 1021.1 4.2
21/08:00am 5.3 2.2 3.8 90 0.6 WNW 9 13 5 7 1020.4 1020.8 4.2
21/07:30am 3.7 0.0 2.5 92 0.5 W 11 13 6 7 1020.3 1020.7 4.2
21/07:00am 3.7 -0.7 2.5 92 0.5 W 15 19 8 10 1019.7 1020.1 4.2
21/06:30am 4.3 0.3 2.8 90 0.6 W 13 17 7 9 1019.5 1019.9 4.2
21/06:00am 4.4 0.4 2.9 90 0.6 W 13 17 7 9 1019.2 1019.6 4.2
21/05:30am 4.4 0.4 2.8 89 0.7 W 13 17 7 9 1018.7 1019.2 4.2
21/05:00am 4.5 -0.3 2.7 88 0.7 W 17 22 9 12 1018.2 1018.7 4.2
21/04:30am 4.9 -0.8 2.8 86 0.9 W 22 30 12 16 1017.9 1018.4 4.2
21/04:00am 4.7 -0.1 2.6 86 0.9 W 17 20 9 11 1017.7 1018.2 4.2
21/03:30am 5.1 1.1 2.6 84 1.0 W 13 15 7 8 1017.4 1017.9 4.2
21/03:00am 5.9 0.7 2.7 80 1.3 W 19 24 10 13 1017.3 1017.8 4.2
21/02:30am 6.9 1.6 3.2 77 1.6 W 20 28 11 15 1017.1 1017.5 4.2
21/02:00am 7.3 2.0 3.2 75 1.7 W 20 28 11 15 1016.7 1017.1 4.2
21/01:30am 7.3 2.6 3.4 76 1.7 WNW 17 24 9 13 1016.4 1016.8 4.2
21/01:00am 7.5 3.2 3.4 75 1.8 WNW 15 22 8 12 1016.1 1016.5 4.2
21/12:30am 7.6 2.9 3.3 74 1.8 WNW 17 28 9 15 1015.7 1016.1 4.2
21/12:00am 8.1 2.9 3.6 73 2.0 W 20 28 11 15 1015.4 1015.8 4.2
 
Date/Time
EST
Temp
°C
App
Temp
°C
Dew
Point
°C
Rel
Hum
%
Delta-T
°C
Wind Press
QNH
hPa
Press
MSL
hPa
Rain since
9am
mm
Dir  Spd
km/h
Gust
km/h
Spd
kts
Gust
kts
20/11:30pm 8.3 1.6 3.6 72 2.0 W 28 35 15 19 1015.0 1015.4 4.2
20/11:00pm 8.6 1.5 3.4 70 2.3 W 30 46 16 25 1014.6 1015.0 4.2
20/10:30pm 9.0 2.3 3.6 69 2.4 W 28 41 15 22 1014.4 1014.8 4.2
20/10:13pm 9.3 1.8 3.7 68 2.5 W 32 52 17 28 1014.0 1014.5 4.2
20/10:00pm 9.4 2.0 4.0 69 2.4 W 32 44 17 24 1013.8 1014.3 4.2
20/09:30pm 9.7 1.4 4.1 68 2.5 W 37 56 20 30 1013.3 1013.7 4.2
20/09:24pm 9.6 1.3 4.0 68 2.5 W 37 56 20 30 1013.3 1013.7 4.2
20/09:00pm 10.0 2.1 4.4 68 2.5 W 35 50 19 27 1012.6 1013.0 4.2
20/08:41pm 10.0 2.2 4.8 70 2.4 W 35 56 19 30 1012.5 1012.9 4.2
20/08:30pm 10.0 1.8 5.0 71 2.3 W 37 54 20 29 1012.3 1012.7 4.2
20/08:17pm 10.0 1.4 4.8 70 2.4 W 39 57 21 31 1012.1 1012.5 4.2
20/08:00pm 10.2 2.1 5.2 71 2.3 WNW 37 50 20 27 1011.9 1012.3 4.2
20/07:32pm 10.4 2.3 5.4 71 2.3 W 37 56 20 30 1011.2 1011.6 4.2
20/07:30pm 10.5 3.2 5.3 70 2.4 W 33 48 18 26 1011.1 1011.5 4.2
20/07:00pm 10.6 3.3 5.4 70 2.4 W 33 54 18 29 1010.8 1011.2 4.2
20/06:30pm 10.8 2.3 5.3 69 2.5 W 39 63 21 34 1010.1 1010.5 4.2
20/06:24pm 10.7 2.7 5.7 71 2.3 W 37 61 20 33 1010.0 1010.4 4.2
20/06:00pm 9.9 3.7 6.3 78 1.7 WNW 28 41 15 22 1009.6 1010.0 4.2
20/05:30pm 9.1 2.7 6.9 86 1.0 WNW 30 43 16 23 1009.1 1009.5 4.2
20/05:00pm 9.1 2.3 6.7 85 1.1 W 32 43 17 23 1008.8 1009.2 4.0
20/04:30pm 9.3 2.2 6.6 83 1.3 W 33 54 18 29 1008.3 1008.7 3.8
20/04:16pm 9.2 2.7 6.3 82 1.4 W 30 52 16 28 1008.0 1008.4 3.6
20/04:00pm 9.2 2.0 6.1 81 1.4 W 33 48 18 26 1007.8 1008.2 3.4
20/03:42pm 9.5 2.2 5.5 76 1.8 WNW 33 63 18 34 1007.4 1007.8 3.0
20/03:30pm 9.3 2.2 5.3 76 1.8 WNW 32 41 17 22 1007.2 1007.6 2.8
20/03:00pm 8.9 0.4 5.3 78 1.6 W 39 57 21 31 1007.0 1007.4 2.8
20/02:30pm 9.3 2.0 5.5 77 1.7 W 33 57 18 31 1006.4 1006.8 2.8
20/02:29pm 9.2 2.1 5.6 78 1.7 W 32 52 17 28 1006.4 1006.8 2.8
20/02:24pm 8.6 1.0 5.7 82 1.3 W 35 50 19 27 1006.4 1006.8 2.8
20/02:14pm 8.3 -1.0 5.2 81 1.4 W 43 57 23 31 1006.4 1006.8 2.8
20/02:00pm 9.6 0.6 4.4 70 2.3 W 41 65 22 35 1005.8 1006.2 2.6
20/01:49pm 9.3 1.7 5.9 79 1.6 W 35 54 19 29 1006.1 1006.5 2.6
20/01:35pm 7.5 -0.6 5.1 85 1.1 W 37 50 20 27 1006.3 1006.7 2.6
20/01:30pm 8.1 0.1 5.6 84 1.1 W 37 50 20 27 1006.3 1006.7 2.2
20/01:15pm 6.8 -2.1 3.2 78 1.5 W 39 59 21 32 1006.1 1006.5 1.8
20/01:12pm 9.0 1.4 5.7 80 1.5 WNW 35 56 19 30 1005.9 1006.3 0.6
20/01:00pm 9.6 2.1 6.3 80 1.6 WNW 35 50 19 27 1005.9 1006.3 0.6
20/12:46pm 8.3 1.1 5.9 85 1.1 WNW 33 59 18 32 1006.1 1006.5 0.6
20/12:43pm 8.2 1.1 5.5 83 1.2 WNW 32 44 17 24 1006.0 1006.4 0.6
20/12:30pm 7.8 0.0 5.1 83 1.2 W 35 50 19 27 1006.2 1006.6 0.4
20/12:17pm 8.4 0.2 4.6 77 1.7 WNW 37 56 20 30 1006.2 1006.6 0.0
20/12:12pm 8.8 1.0 5.0 77 1.7 W 35 54 19 29 1006.2 1006.6 0.0
20/12:00pm 9.1 1.5 4.1 71 2.2 WNW 33 50 18 27 1006.5 1006.9 0.0
20/11:32am 8.8 0.5 4.0 72 2.1 W 37 56 20 30 1006.8 1007.2 0.0
20/11:30am 8.8 0.1 4.2 73 2.0 W 39 56 21 30 1006.8 1007.2 0.0
20/11:00am 9.3 0.1 3.7 68 2.5 WNW 41 56 22 30 1006.7 1007.1 0.0
20/10:43am 9.3 1.0 4.1 70 2.3 WNW 37 56 20 30 1006.6 1007.0 0.0
20/10:30am 9.1 0.0 3.9 70 2.3 W 41 56 22 30 1006.7 1007.1 0.0
20/10:00am 8.8 -0.3 4.0 72 2.1 WNW 41 54 22 29 1006.4 1006.8 0.0
20/09:30am 8.5 -1.1 4.3 75 1.9 WNW 44 63 24 34 1006.0 1006.4 0.0
20/09:00am 8.2 -0.8 4.6 78 1.6 WNW 41 61 22 33 1005.5 1005.8 3.2
20/08:30am 8.6 -1.0 4.4 75 1.9 WNW 44 65 24 35 1005.1 1005.4 3.2
20/08:00am 9.0 1.8 5.2 77 1.7 WNW 32 50 17 27 1004.7 1005.0 3.0
20/07:30am 9.3 -0.1 4.7 73 2.1 WNW 43 61 23 33 1004.4 1004.7 3.0
20/07:07am 9.7 1.2 5.3 74 2.0 WNW 39 59 21 32 1003.8 1004.2 3.0
20/07:00am 9.9 1.1 5.5 74 2.0 WNW 41 52 22 28 1003.5 1003.9 3.0
20/06:30am 9.6 2.5 6.3 80 1.5 WNW 33 48 18 26 1003.3 1003.7 3.0
20/06:07am 10.0 2.9 6.2 77 1.8 NW 33 52 18 28 1002.9 1003.3 2.8
20/06:00am 10.0 3.4 6.2 77 1.8 NW 30 41 16 22 1002.8 1003.2 2.8
20/05:30am 9.4 4.9 6.8 84 1.2 NW 20 33 11 18 1002.7 1003.1 2.8
20/05:00am 9.3 4.0 6.9 85 1.1 NNW 24 35 13 19 1002.9 1003.3 2.0
20/04:30am 9.7 5.7 6.8 82 1.4 NNW 17 26 9 14 1003.2 1003.6 1.8
20/04:00am 9.2 5.2 6.8 85 1.1 NNW 17 26 9 14 1003.7 1004.1 1.8
20/03:30am 9.3 5.4 7.1 86 1.0 NNW 17 24 9 13 1004.1 1004.5 1.8
20/03:00am 9.4 5.2 7.3 87 1.0 NNW 19 26 10 14 1004.8 1005.1 1.8

Other formats

Comma delimited format used in spreadsheet applications
http://www.bom.gov.au/fwo/IDN60801/IDN60801.94910.axf

JavaScript Object Notation format (JSON) in row-major order
http://www.bom.gov.au/fwo/IDN60801/IDN60801.94910.json

Data quality

Most of these data are generated automatically and are frequently updated. Quality checks on data are not normally performed. It is possible for incorrect values to appear. Refer to information at About Latest Weather Observations and please check the disclaimer before using these data.